Time;durP1;ratioP1;P1;durP2;ratioP2;P2;SDS_P1;SDS_P2;PMS_P1;PMS_P2;Temp;Humidity;BMP_temperature;BMP_pressure;BME280_temperature;BME280_humidity;BME280_pressure;Samples;Min_cycle;Max_cycle;Signal;HPM_P1;HPM_P2
2022/05/18 00:00:27;;;;;;;11.75;5.80;;;16.90;99.90;;;;;;4972414;28;20045;-88
2022/05/18 00:02:57;;;;;;;9.07;5.22;;;16.90;99.90;;;;;;4958677;28;20109;-87
2022/05/18 00:05:22;;;;;;;8.90;5.40;;;16.80;99.90;;;;;;4979155;28;20096;-87
2022/05/18 00:07:49;;;;;;;11.40;5.45;;;16.80;99.90;;;;;;4972315;28;20027;-86
2022/05/18 00:10:15;;;;;;;8.32;5.28;;;16.80;99.90;;;;;;4985240;28;20027;-87
2022/05/18 00:12:49;;;;;;;8.32;5.47;;;16.70;99.90;;;;;;4974330;28;20446;-87
2022/05/18 00:15:17;;;;;;;12.35;5.85;;;16.70;99.90;;;;;;4975635;28;20041;-87
2022/05/18 00:17:43;;;;;;;10.98;6.20;;;16.60;99.90;;;;;;4971665;28;20038;-87
2022/05/18 00:20:10;;;;;;;14.05;6.20;;;16.60;99.90;;;;;;4971583;28;20545;-86
2022/05/18 00:22:47;;;;;;;11.98;5.63;;;16.60;99.90;;;;;;4957127;28;20154;-88
2022/05/18 00:25:13;;;;;;;10.90;6.13;;;16.60;99.90;;;;;;4971642;28;20061;-87
2022/05/18 00:27:38;;;;;;;13.13;6.07;;;16.50;99.90;;;;;;4983575;28;20514;-87
2022/05/18 00:30:05;;;;;;;9.05;6.20;;;16.50;99.90;;;;;;4974870;28;20084;-87
2022/05/18 00:32:31;;;;;;;12.05;6.82;;;16.50;99.90;;;;;;4960217;28;20431;-87
2022/05/18 00:34:56;;;;;;;9.95;5.55;;;16.50;99.90;;;;;;4971340;28;20022;-87
2022/05/18 00:37:22;;;;;;;10.95;7.10;;;16.40;99.90;;;;;;4975521;28;20093;-87
2022/05/18 00:39:47;;;;;;;8.32;5.88;;;16.40;99.90;;;;;;4974429;28;20121;-87
2022/05/18 00:42:21;;;;;;;15.57;6.63;;;16.40;99.90;;;;;;4962910;28;20555;-87
2022/05/18 00:44:47;;;;;;;9.45;5.95;;;16.40;99.90;;;;;;4966651;28;20058;-89
2022/05/18 00:47:12;;;;;;;12.63;6.78;;;16.40;99.90;;;;;;4970796;28;20026;-87
2022/05/18 00:49:40;;;;;;;12.88;7.25;;;16.40;99.90;;;;;;4972692;28;20031;-87
2022/05/18 00:52:07;;;;;;;11.52;6.15;;;16.40;99.90;;;;;;4961242;28;20093;-87
2022/05/18 00:54:35;;;;;;;9.18;6.60;;;16.30;99.90;;;;;;4962339;28;20504;-88
2022/05/18 00:57:08;;;;;;;11.98;7.57;;;16.30;99.90;;;;;;4969674;28;20434;-88
2022/05/18 00:59:42;;;;;;;10.32;6.75;;;16.30;99.90;;;;;;4974940;28;20113;-88
2022/05/18 01:02:09;;;;;;;13.90;6.95;;;16.20;99.90;;;;;;4971371;28;20479;-87
2022/05/18 01:04:35;;;;;;;14.90;6.75;;;16.20;99.90;;;;;;4971430;28;20069;-86
2022/05/18 01:07:06;;;;;;;11.82;6.60;;;16.20;99.90;;;;;;4974222;28;20065;-86
2022/05/18 01:09:41;;;;;;;12.07;6.75;;;16.20;99.90;;;;;;4967505;28;20125;-87
2022/05/18 01:12:08;;;;;;;14.38;7.60;;;16.20;99.90;;;;;;4979189;28;20137;-87
2022/05/18 01:15:15;;;;;;;12.38;7.30;;;16.20;99.90;;;;;;4977917;28;20026;-87
2022/05/18 01:17:43;;;;;;;14.50;7.35;;;16.20;99.90;;;;;;4902236;29;20035;-87
2022/05/18 01:20:13;;;;;;;12.30;6.93;;;16.10;99.90;;;;;;4957967;28;20081;-86
2022/05/18 01:23:08;;;;;;;12.93;7.75;;;16.10;99.90;;;;;;4978247;28;20019;-87
2022/05/18 01:25:58;;;;;;;14.73;7.28;;;16.10;99.90;;;;;;4978436;28;20074;-87
2022/05/18 01:28:28;;;;;;;13.35;7.43;;;16.10;99.90;;;;;;4993313;28;20023;-88
2022/05/18 01:30:54;;;;;;;12.77;7.45;;;16.10;99.90;;;;;;4974917;28;20061;-86
2022/05/18 01:33:21;;;;;;;14.10;7.43;;;16.10;99.90;;;;;;4992004;28;20057;-87
2022/05/18 01:35:48;;;;;;;11.93;7.28;;;16.10;99.90;;;;;;4992751;28;20022;-86
2022/05/18 01:38:14;;;;;;;13.35;7.75;;;16.00;99.90;;;;;;4975169;28;20034;-87
2022/05/18 01:41:01;;;;;;;11.93;7.70;;;16.00;99.90;;;;;;4976596;28;20101;-87
2022/05/18 01:43:33;;;;;;;13.77;7.28;;;16.10;99.90;;;;;;4982753;28;20026;-87
2022/05/18 01:46:01;;;;;;;13.38;7.75;;;16.00;99.90;;;;;;4978248;28;20156;-87
2022/05/18 01:48:30;;;;;;;14.60;7.90;;;16.10;99.90;;;;;;4977174;28;20438;-87
2022/05/18 01:50:58;;;;;;;13.45;7.38;;;16.10;99.90;;;;;;4967663;28;20064;-87
2022/05/18 01:53:24;;;;;;;13.82;7.60;;;16.00;99.90;;;;;;4977823;28;20085;-87
2022/05/18 01:55:49;;;;;;;11.50;7.50;;;16.00;99.90;;;;;;4974203;28;20176;-87
2022/05/18 01:58:15;;;;;;;10.77;7.38;;;16.00;99.90;;;;;;4963952;28;20471;-87
2022/05/18 02:00:42;;;;;;;11.93;7.68;;;16.00;99.90;;;;;;4973785;28;20034;-87
2022/05/18 02:03:08;;;;;;;13.00;7.70;;;16.00;99.90;;;;;;4974203;28;20384;-88
2022/05/18 02:05:33;;;;;;;12.55;7.47;;;15.90;99.90;;;;;;4975079;28;20031;-87
2022/05/18 02:07:59;;;;;;;14.52;8.38;;;15.90;99.90;;;;;;4978356;28;20474;-87
2022/05/18 02:10:26;;;;;;;12.63;7.88;;;15.90;99.90;;;;;;4977269;28;20030;-89
2022/05/18 02:12:52;;;;;;;12.25;7.75;;;15.90;99.90;;;;;;4975946;28;20018;-88
2022/05/18 02:15:19;;;;;;;11.52;7.35;;;15.80;99.90;;;;;;4972990;28;20030;-87
2022/05/18 02:17:44;;;;;;;14.07;7.40;;;15.90;99.90;;;;;;4972785;28;20108;-87
2022/05/18 02:20:11;;;;;;;16.63;7.68;;;15.80;99.90;;;;;;4971947;28;20083;-88
2022/05/18 02:22:37;;;;;;;14.05;7.22;;;15.80;99.90;;;;;;4965842;28;20080;-87
2022/05/18 02:25:03;;;;;;;12.90;7.30;;;15.80;99.90;;;;;;4975131;28;20118;-87
2022/05/18 02:27:30;;;;;;;15.07;7.10;;;15.80;99.90;;;;;;4977212;28;20066;-88
2022/05/18 02:29:56;;;;;;;11.68;7.78;;;15.80;99.90;;;;;;4967494;28;20027;-87
2022/05/18 02:32:22;;;;;;;11.02;7.53;;;15.80;99.90;;;;;;4977192;28;20029;-87
2022/05/18 02:34:48;;;;;;;10.75;7.28;;;15.80;99.90;;;;;;4965656;28;20086;-87
2022/05/18 02:37:14;;;;;;;12.73;7.75;;;15.70;99.90;;;;;;4973019;28;20085;-87
2022/05/18 02:39:39;;;;;;;12.68;8.23;;;15.70;99.90;;;;;;4964006;28;20042;-88
2022/05/18 02:42:05;;;;;;;11.85;7.68;;;15.70;99.90;;;;;;4970966;28;20038;-88
2022/05/18 02:44:30;;;;;;;11.07;7.45;;;15.70;99.90;;;;;;4974002;28;20038;-87
2022/05/18 02:46:59;;;;;;;12.23;8.10;;;15.60;99.90;;;;;;4994977;28;20022;-87
2022/05/18 02:49:25;;;;;;;11.88;7.38;;;15.70;99.90;;;;;;4967408;28;20052;-87
2022/05/18 02:51:53;;;;;;;14.18;7.93;;;15.60;99.90;;;;;;4968232;28;20066;-88
2022/05/18 02:57:06;;;;;;;11.10;7.57;;;15.60;99.90;;;;;;4977786;28;20045;-87
2022/05/18 02:59:33;;;;;;;10.48;7.78;;;15.60;99.90;;;;;;4976130;28;20026;-87
2022/05/18 03:01:59;;;;;;;13.82;7.85;;;15.60;99.90;;;;;;4977455;28;20081;-88
2022/05/18 03:04:26;;;;;;;12.18;7.72;;;15.50;99.90;;;;;;4972133;28;20038;-87
2022/05/18 03:06:51;;;;;;;11.32;8.15;;;15.60;99.90;;;;;;4965790;28;20483;-88
2022/05/18 03:09:18;;;;;;;10.20;6.65;;;15.60;99.90;;;;;;4964426;28;20065;-87
2022/05/18 03:11:44;;;;;;;12.15;7.55;;;15.50;99.90;;;;;;4961468;28;20419;-87
2022/05/18 03:14:10;;;;;;;14.00;8.15;;;15.60;99.90;;;;;;4962110;28;20034;-88
2022/05/18 03:16:37;;;;;;;11.57;7.80;;;15.60;99.90;;;;;;4974776;28;20036;-87
2022/05/18 03:19:03;;;;;;;12.18;6.85;;;15.60;99.90;;;;;;4975971;28;20041;-87
2022/05/18 03:24:14;;;;;;;13.43;7.43;;;15.60;99.90;;;;;;4957420;28;20410;-87
2022/05/18 03:26:40;;;;;;;9.95;7.68;;;15.50;99.90;;;;;;4975073;28;20038;-88
2022/05/18 03:29:05;;;;;;;9.90;7.85;;;15.50;99.90;;;;;;4971306;28;20038;-87
2022/05/18 03:31:31;;;;;;;11.95;6.43;;;15.50;99.90;;;;;;4963379;28;20027;-87
2022/05/18 03:33:58;;;;;;;12.52;8.02;;;15.50;99.90;;;;;;4959065;28;20019;-86
2022/05/18 03:36:24;;;;;;;20.08;7.63;;;15.50;99.90;;;;;;4970879;28;20034;-87
2022/05/18 03:38:50;;;;;;;9.85;6.70;;;15.50;99.90;;;;;;4969905;28;20097;-87
2022/05/18 03:41:17;;;;;;;10.15;6.78;;;15.50;99.90;;;;;;4972248;28;20019;-87
2022/05/18 03:43:43;;;;;;;12.38;7.43;;;15.50;99.90;;;;;;4974363;28;20034;-86
2022/05/18 03:46:09;;;;;;;11.65;6.82;;;15.50;99.90;;;;;;4964323;28;20042;-87
2022/05/18 03:48:36;;;;;;;10.40;6.93;;;15.50;99.90;;;;;;4971363;28;20023;-88
2022/05/18 03:51:04;;;;;;;12.07;6.50;;;15.50;99.90;;;;;;4970779;28;20497;-88
2022/05/18 03:53:29;;;;;;;9.18;5.85;;;15.50;99.90;;;;;;4975072;28;20073;-85
2022/05/18 03:55:55;;;;;;;9.52;6.55;;;15.50;99.90;;;;;;4971537;28;20031;-86
2022/05/18 03:58:21;;;;;;;12.48;7.20;;;15.50;99.90;;;;;;4988065;28;20081;-86
2022/05/18 04:00:49;;;;;;;8.80;6.32;;;15.60;99.90;;;;;;4973181;28;20031;-86
2022/05/18 04:03:17;;;;;;;11.15;6.38;;;15.60;99.90;;;;;;4972629;28;20030;-86
2022/05/18 04:05:43;;;;;;;9.15;6.78;;;15.60;99.90;;;;;;4974283;28;20065;-86
2022/05/18 04:08:09;;;;;;;9.23;6.50;;;15.60;99.90;;;;;;4970334;28;20027;-87
2022/05/18 04:10:36;;;;;;;10.02;6.43;;;15.60;99.90;;;;;;4970191;28;20034;-87
2022/05/18 04:13:02;;;;;;;11.85;6.05;;;15.60;99.90;;;;;;4963959;28;20057;-86
2022/05/18 04:15:28;;;;;;;11.07;5.85;;;15.70;99.90;;;;;;4975155;28;20030;-86
2022/05/18 04:17:55;;;;;;;10.55;5.93;;;15.80;99.90;;;;;;4973886;28;20497;-86
2022/05/18 04:20:23;;;;;;;9.43;6.90;;;15.80;99.90;;;;;;4972189;28;20029;-86
2022/05/18 04:22:50;;;;;;;10.15;6.53;;;16.00;99.90;;;;;;4931160;28;1083334;-86
2022/05/18 04:25:19;;;;;;;10.85;6.50;;;16.00;99.90;;;;;;4947412;28;20184;-86
2022/05/18 04:27:49;;;;;;;11.32;6.35;;;16.10;99.90;;;;;;4975480;28;20487;-86
2022/05/18 04:30:16;;;;;;;9.43;6.50;;;16.20;99.90;;;;;;4976189;28;20081;-87
2022/05/18 04:32:42;;;;;;;10.18;6.05;;;16.20;99.90;;;;;;4975037;28;20031;-86
2022/05/18 04:35:09;;;;;;;10.02;7.55;;;16.20;99.90;;;;;;4972818;28;20037;-87
2022/05/18 04:37:39;;;;;;;9.45;7.10;;;16.20;99.90;;;;;;4968222;28;20027;-86
2022/05/18 04:40:06;;;;;;;8.43;6.93;;;16.20;99.90;;;;;;4967528;28;20066;-86
2022/05/18 04:42:31;;;;;;;9.90;7.25;;;16.20;99.90;;;;;;4967950;28;20415;-86
2022/05/18 04:44:57;;;;;;;11.63;7.55;;;16.20;99.90;;;;;;4973347;28;20045;-87
2022/05/18 04:47:24;;;;;;;12.73;7.57;;;16.20;99.90;;;;;;4975337;28;20501;-88
2022/05/18 04:49:51;;;;;;;9.63;6.60;;;16.20;99.90;;;;;;4979436;28;20034;-86
2022/05/18 04:52:20;;;;;;;12.07;8.00;;;16.20;99.90;;;;;;4995054;28;20022;-87
2022/05/18 04:54:46;;;;;;;10.80;7.70;;;16.30;99.90;;;;;;4979878;28;20081;-86
2022/05/18 04:57:12;;;;;;;10.75;7.72;;;16.30;99.90;;;;;;4978081;28;20046;-86
2022/05/18 04:59:38;;;;;;;10.27;8.10;;;16.30;99.90;;;;;;4979614;28;20460;-86
2022/05/18 05:02:05;;;;;;;10.93;7.50;;;16.40;99.90;;;;;;4978612;28;20027;-87
2022/05/18 05:04:32;;;;;;;12.10;7.35;;;16.50;99.90;;;;;;4985934;28;20069;-85
2022/05/18 05:06:57;;;;;;;10.35;8.57;;;16.50;99.90;;;;;;4978290;28;20034;-84
2022/05/18 05:09:24;;;;;;;10.93;8.88;;;16.60;99.90;;;;;;4977540;28;20382;-84
2022/05/18 05:11:51;;;;;;;8.88;7.25;;;16.70;99.90;;;;;;4976642;28;20033;-84
2022/05/18 05:14:17;;;;;;;11.80;7.50;;;16.90;99.90;;;;;;4976178;28;20034;-84
2022/05/18 05:16:43;;;;;;;8.02;7.18;;;17.10;99.90;;;;;;4977976;28;20034;-84
2022/05/18 05:19:09;;;;;;;10.13;7.00;;;17.40;99.90;;;;;;4994181;28;20026;-84
2022/05/18 05:21:35;;;;;;;9.18;6.68;;;17.80;99.90;;;;;;4968304;28;20033;-87
2022/05/18 05:24:02;;;;;;;8.70;6.35;;;18.20;99.90;;;;;;4973141;28;20554;-88
2022/05/18 05:26:28;;;;;;;8.38;7.50;;;18.50;99.90;;;;;;4971059;28;20054;-87
2022/05/18 05:28:53;;;;;;;8.85;7.47;;;18.80;99.90;;;;;;4977363;28;20023;-87
2022/05/18 05:31:19;;;;;;;10.70;7.30;;;19.00;99.90;;;;;;4974405;28;20270;-87
2022/05/18 05:33:45;;;;;;;11.77;7.13;;;19.10;99.90;;;;;;4979036;28;20022;-87
2022/05/18 05:36:10;;;;;;;9.07;7.13;;;19.30;99.90;;;;;;4996209;28;20390;-87
2022/05/18 05:38:36;;;;;;;12.75;7.70;;;19.40;99.90;;;;;;4979353;28;20023;-87
2022/05/18 05:41:01;;;;;;;8.82;7.22;;;19.60;99.90;;;;;;4978014;28;20033;-88
2022/05/18 05:43:31;;;;;;;11.77;7.88;;;19.70;99.90;;;;;;4974739;28;20022;-87
2022/05/18 05:46:09;;;;;;;13.15;7.75;;;19.90;99.90;;;;;;4978650;28;20452;-87
2022/05/18 05:48:36;;;;;;;10.38;7.13;;;20.10;99.90;;;;;;4978901;28;20026;-89
2022/05/18 05:51:03;;;;;;;11.60;8.38;;;20.30;99.90;;;;;;4977623;28;20026;-88
2022/05/18 05:53:28;;;;;;;12.05;7.75;;;20.40;99.90;;;;;;4978444;28;20033;-89
2022/05/18 05:55:54;;;;;;;11.15;8.15;;;20.50;99.90;;;;;;4977140;28;20030;-88
2022/05/18 05:58:21;;;;;;;8.80;7.70;;;20.40;99.90;;;;;;4973929;28;20077;-89
2022/05/18 06:00:47;;;;;;;15.63;7.82;;;20.50;99.90;;;;;;4977841;28;20041;-88
2022/05/18 06:03:17;;;;;;;12.38;8.20;;;20.60;99.90;;;;;;4978464;28;20018;-89
2022/05/18 06:05:43;;;;;;;9.38;8.23;;;20.70;99.90;;;;;;4977183;28;20034;-88
2022/05/18 06:08:09;;;;;;;10.65;7.30;;;20.80;99.90;;;;;;4967431;28;20431;-86
2022/05/18 06:10:35;;;;;;;14.02;9.25;;;21.00;99.90;;;;;;4995856;28;20050;-86
2022/05/18 06:13:09;;;;;;;11.65;9.05;;;21.20;99.90;;;;;;4976682;28;20121;-87
2022/05/18 06:15:35;;;;;;;10.35;8.63;;;21.20;99.90;;;;;;4995854;28;20026;-87
2022/05/18 06:18:00;;;;;;;9.00;7.70;;;21.30;99.90;;;;;;4977754;28;20497;-86
2022/05/18 06:20:27;;;;;;;9.73;8.18;;;21.50;99.90;;;;;;4976729;28;20487;-87
2022/05/18 06:22:52;;;;;;;15.02;8.38;;;21.60;99.90;;;;;;4973043;28;20031;-88
2022/05/18 06:25:18;;;;;;;13.38;9.10;;;21.60;99.90;;;;;;4960630;28;20541;-87
2022/05/18 06:27:44;;;;;;;9.70;8.32;;;21.70;99.90;;;;;;4961999;28;20053;-86
2022/05/18 06:30:11;;;;;;;12.93;8.05;;;21.70;99.90;;;;;;4976602;28;20050;-87
2022/05/18 06:32:37;;;;;;;11.32;8.30;;;21.60;99.90;;;;;;4977724;28;20026;-87
2022/05/18 06:35:04;;;;;;;11.32;8.20;;;21.60;99.90;;;;;;4977287;28;20037;-87
2022/05/18 06:37:29;;;;;;;7.90;7.15;;;21.60;99.90;;;;;;4978452;28;20023;-86
2022/05/18 06:39:55;;;;;;;11.15;7.80;;;21.50;99.90;;;;;;4977467;28;20034;-86
2022/05/18 06:42:21;;;;;;;12.30;6.68;;;21.50;99.90;;;;;;4976804;28;20030;-86
2022/05/18 06:44:47;;;;;;;11.55;5.50;;;21.50;99.90;;;;;;4969720;28;20058;-86
2022/05/18 06:47:12;;;;;;;9.88;6.90;;;21.60;99.90;;;;;;4977556;28;20045;-85
2022/05/18 06:49:39;;;;;;;8.50;6.18;;;21.70;99.90;;;;;;4973928;28;20034;-85
2022/05/18 06:52:05;;;;;;;12.23;6.38;;;21.80;99.90;;;;;;4977085;28;20030;-85
2022/05/18 06:54:30;;;;;;;8.77;6.10;;;21.90;99.90;;;;;;4967623;28;20038;-86
2022/05/18 06:56:56;;;;;;;7.55;5.35;;;22.00;99.90;;;;;;4991754;28;20128;-83
2022/05/18 06:59:21;;;;;;;10.18;5.15;;;22.10;99.90;;;;;;4974377;28;20030;-83
2022/05/18 07:01:47;;;;;;;8.43;5.85;;;22.10;99.90;;;;;;4973736;28;20105;-87
2022/05/18 07:04:14;;;;;;;9.45;5.53;;;22.20;99.90;;;;;;4974132;28;20035;-87
2022/05/18 07:06:42;;;;;;;9.07;5.32;;;22.40;99.90;;;;;;4974083;28;20037;-86
2022/05/18 07:09:12;;;;;;;6.82;5.00;;;22.40;99.90;;;;;;4977655;28;20050;-85
2022/05/18 07:11:37;;;;;;;7.82;3.97;;;22.50;99.90;;;;;;4995294;28;20085;-85
2022/05/18 07:14:05;;;;;;;7.93;4.93;;;22.50;99.90;;;;;;4976478;28;20023;-86
2022/05/18 07:16:32;;;;;;;10.18;5.13;;;22.60;99.50;;;;;;4975596;28;20486;-86
2022/05/18 07:18:58;;;;;;;9.15;5.45;;;22.60;99.40;;;;;;4994467;28;20034;-86
2022/05/18 07:21:25;;;;;;;7.15;5.35;;;22.60;99.40;;;;;;4978149;28;20391;-86
2022/05/18 07:23:52;;;;;;;8.35;5.65;;;22.60;98.80;;;;;;4970813;28;20089;-86
2022/05/18 07:26:19;;;;;;;14.65;7.63;;;22.50;98.70;;;;;;4957885;28;20027;-86
2022/05/18 07:28:45;;;;;;;9.20;6.15;;;22.50;98.20;;;;;;4973372;28;20031;-86
2022/05/18 07:31:11;;;;;;;8.77;6.45;;;22.30;98.10;;;;;;4972588;28;20483;-86
2022/05/18 07:33:36;;;;;;;10.63;6.28;;;22.20;98.30;;;;;;4971500;28;20503;-86
2022/05/18 07:36:03;;;;;;;14.65;6.90;;;22.00;98.40;;;;;;4973369;28;20027;-88
2022/05/18 07:38:31;;;;;;;12.52;7.35;;;21.90;98.60;;;;;;4972785;28;20114;-86
2022/05/18 07:40:56;;;;;;;11.00;6.90;;;21.80;98.80;;;;;;4961042;28;21003;-85
2022/05/18 07:43:23;;;;;;;8.80;5.70;;;21.70;99.00;;;;;;4972679;28;20031;-87
2022/05/18 07:45:51;;;;;;;11.82;6.82;;;21.70;99.30;;;;;;4965453;28;20050;-86
2022/05/18 07:48:17;;;;;;;12.75;7.03;;;21.90;99.50;;;;;;4954699;28;20027;-86
2022/05/18 07:50:43;;;;;;;13.27;6.80;;;22.10;99.20;;;;;;4973051;28;20034;-86
2022/05/18 07:53:09;;;;;;;7.43;5.40;;;22.30;99.10;;;;;;4973024;28;20030;-87
2022/05/18 07:55:35;;;;;;;9.30;6.40;;;22.50;99.10;;;;;;4973149;28;20051;-86
2022/05/18 07:58:10;;;;;;;8.98;6.00;;;22.60;99.00;;;;;;4973021;28;20088;-87
2022/05/18 08:00:36;;;;;;;10.90;7.15;;;22.70;99.00;;;;;;4967622;28;20037;-86
2022/05/18 08:03:02;;;;;;;11.60;7.93;;;22.80;98.80;;;;;;4972381;28;20019;-86
2022/05/18 08:05:30;;;;;;;11.45;7.63;;;22.90;98.60;;;;;;4972295;28;20035;-86
2022/05/18 08:08:02;;;;;;;10.50;7.32;;;23.00;98.50;;;;;;4973979;28;20014;-87
2022/05/18 08:15:56;;;;;;;11.95;7.18;;;23.40;98.40;;;;;;4969271;28;20097;-86
2022/05/18 08:18:21;;;;;;;11.25;7.00;;;23.50;98.00;;;;;;4981873;28;20474;-86
2022/05/18 08:20:48;;;;;;;11.02;7.72;;;23.60;97.80;;;;;;4963255;28;20035;-86
2022/05/18 08:23:15;;;;;;;10.70;8.40;;;23.70;97.90;;;;;;4971414;28;20050;-85
2022/05/18 08:25:43;;;;;;;13.43;8.45;;;23.80;98.20;;;;;;4973030;28;20100;-85
2022/05/18 08:28:08;;;;;;;9.70;6.80;;;23.90;97.90;;;;;;4972366;28;20168;-86
2022/05/18 08:30:34;;;;;;;11.93;7.35;;;23.90;97.90;;;;;;4962311;28;20144;-86
2022/05/18 08:33:01;;;;;;;11.43;7.45;;;24.00;97.90;;;;;;4963563;28;20042;-86
2022/05/18 08:35:27;;;;;;;10.32;6.82;;;24.10;97.70;;;;;;4953730;28;20197;-86
2022/05/18 08:37:53;;;;;;;9.23;6.43;;;24.20;97.40;;;;;;4972433;28;20114;-86
2022/05/18 08:40:37;;;;;;;13.48;8.77;;;24.40;97.20;;;;;;4973092;28;20031;-87
2022/05/18 08:43:08;;;;;;;13.63;8.00;;;24.50;96.80;;;;;;4970654;28;20019;-85
2022/05/18 08:45:43;;;;;;;10.40;6.68;;;24.50;97.00;;;;;;4972647;28;20035;-87
2022/05/18 08:48:46;;;;;;;14.20;8.23;;;24.60;96.80;;;;;;4965180;28;20031;-86
2022/05/18 08:51:33;;;;;;;10.80;7.57;;;24.60;96.40;;;;;;4968326;28;20084;-87
2022/05/18 08:54:16;;;;;;;8.15;6.82;;;24.70;96.30;;;;;;4967671;28;20027;-87
2022/05/18 08:56:44;;;;;;;8.68;7.50;;;24.80;96.40;;;;;;4964525;28;20038;-86
2022/05/18 08:59:19;;;;;;;9.95;7.07;;;24.90;96.20;;;;;;4971732;28;20460;-86
2022/05/18 09:01:49;;;;;;;10.63;7.65;;;25.10;96.30;;;;;;4971937;28;20078;-87
2022/05/18 09:04:25;;;;;;;11.45;9.10;;;25.00;96.00;;;;;;4971260;28;20124;-87
2022/05/18 09:07:01;;;;;;;10.57;8.48;;;25.10;96.10;;;;;;4970702;28;20039;-86
2022/05/18 09:12:26;;;;;;;10.70;8.00;;;25.20;96.00;;;;;;4962592;28;20498;-87
2022/05/18 09:14:52;;;;;;;11.50;9.32;;;25.40;95.90;;;;;;4970892;28;20035;-87
2022/05/18 09:17:25;;;;;;;14.00;9.90;;;25.70;95.40;;;;;;4972568;28;20033;-87
2022/05/18 09:20:03;;;;;;;9.95;7.88;;;25.70;94.90;;;;;;4969261;28;20502;-86
2022/05/18 09:22:50;;;;;;;15.43;8.40;;;25.70;95.10;;;;;;4968257;28;20019;-86
2022/05/18 09:25:44;;;;;;;14.13;8.10;;;25.80;94.70;;;;;;4970735;28;20058;-86
2022/05/18 09:28:44;;;;;;;11.18;8.20;;;25.80;94.80;;;;;;4963714;28;20031;-86
2022/05/18 09:31:12;;;;;;;9.80;7.88;;;25.90;94.90;;;;;;4965920;28;20031;-86
2022/05/18 09:33:50;;;;;;;10.55;6.50;;;25.90;95.10;;;;;;4971722;28;20027;-87
2022/05/18 09:36:42;;;;;;;7.00;5.28;;;26.00;94.40;;;;;;4969310;28;20058;-86
2022/05/18 09:39:17;;;;;;;12.00;6.53;;;26.00;94.50;;;;;;4957609;28;20023;-86
2022/05/18 09:42:04;;;;;;;11.07;7.35;;;26.00;93.80;;;;;;4965443;28;20023;-87
2022/05/18 09:44:50;;;;;;;11.48;7.80;;;26.10;93.80;;;;;;4971164;28;20062;-86
2022/05/18 09:47:19;;;;;;;9.18;7.00;;;26.00;93.60;;;;;;4958763;28;20038;-86
2022/05/18 09:49:48;;;;;;;12.70;8.38;;;25.90;93.70;;;;;;4975659;28;20038;-85
2022/05/18 09:52:20;;;;;;;8.57;7.68;;;26.00;93.60;;;;;;4975353;28;20054;-87
2022/05/18 09:54:46;;;;;;;10.85;7.35;;;25.90;93.90;;;;;;4971932;28;20432;-87
2022/05/18 09:57:20;;;;;;;17.17;7.97;;;25.90;93.70;;;;;;4967664;28;20039;-87
2022/05/18 10:00:20;;;;;;;13.73;7.85;;;25.90;93.80;;;;;;4971388;28;20037;-86
2022/05/18 10:08:28;;;;;;;7.45;5.45;;;26.30;93.30;;;;;;4974541;28;20136;-87
2022/05/18 10:11:13;;;;;;;7.03;4.85;;;26.40;93.70;;;;;;4974492;28;20037;-86
2022/05/18 10:13:53;;;;;;;6.30;3.30;;;26.50;92.80;;;;;;4973739;28;20408;-87
2022/05/18 10:16:40;;;;;;;7.25;3.25;;;26.40;92.80;;;;;;4975153;28;20027;-86
2022/05/18 10:19:14;;;;;;;8.52;4.15;;;26.30;92.50;;;;;;4968681;28;20027;-86
2022/05/18 10:21:55;;;;;;;7.10;3.40;;;26.30;92.20;;;;;;4974943;28;20027;-86
2022/05/18 10:24:46;;;;;;;5.65;3.75;;;26.30;92.70;;;;;;4974692;28;20415;-87
2022/05/18 10:27:14;;;;;;;7.47;3.37;;;26.40;92.70;;;;;;4971851;28;20032;-86
2022/05/18 10:29:42;;;;;;;5.80;3.15;;;26.60;92.40;;;;;;4956953;28;20393;-87
2022/05/18 10:32:21;;;;;;;6.65;3.33;;;26.60;91.90;;;;;;4974630;28;20412;-86
2022/05/18 10:34:50;;;;;;;7.43;2.78;;;26.70;91.70;;;;;;4974732;28;20042;-86
2022/05/18 10:37:37;;;;;;;7.30;2.92;;;26.70;91.40;;;;;;4975488;28;20077;-86
2022/05/18 10:40:17;;;;;;;7.13;3.15;;;26.70;91.40;;;;;;4970203;28;20155;-86
2022/05/18 10:42:50;;;;;;;6.65;2.83;;;26.60;91.30;;;;;;4974725;28;20031;-86
2022/05/18 10:45:28;;;;;;;8.73;3.90;;;26.70;91.60;;;;;;4955355;29;20050;-86
2022/05/18 10:47:57;;;;;;;6.18;3.40;;;26.80;91.50;;;;;;4972757;28;20472;-86
2022/05/18 10:50:35;;;;;;;9.95;2.97;;;26.80;90.90;;;;;;4974504;28;20472;-86
2022/05/18 10:53:12;;;;;;;4.80;2.20;;;26.80;90.80;;;;;;4973455;28;20030;-86
2022/05/18 10:55:53;;;;;;;4.13;1.88;;;26.70;90.50;;;;;;4973840;28;20027;-86
2022/05/18 10:58:28;;;;;;;3.75;2.13;;;26.70;90.70;;;;;;4973748;28;20067;-87
2022/05/18 11:01:15;;;;;;;3.58;1.90;;;26.80;90.20;;;;;;4973840;28;20034;-86
2022/05/18 11:03:51;;;;;;;3.53;2.15;;;27.00;90.50;;;;;;4974087;28;20085;-86
2022/05/18 11:06:22;;;;;;;4.55;2.72;;;27.10;90.30;;;;;;4974148;28;20126;-87
2022/05/18 11:08:49;;;;;;;4.10;2.28;;;27.10;90.10;;;;;;4973254;28;20026;-87
2022/05/18 11:11:35;;;;;;;7.18;3.20;;;27.20;89.50;;;;;;4975189;28;20031;-87
2022/05/18 11:14:24;;;;;;;4.72;2.28;;;27.20;89.20;;;;;;4973586;28;20048;-86
2022/05/18 11:17:23;;;;;;;10.30;3.67;;;27.20;89.60;;;;;;4961799;28;20054;-87
2022/05/18 11:19:54;;;;;;;5.43;3.05;;;27.30;87.90;;;;;;4973246;28;20465;-87
2022/05/18 11:22:20;;;;;;;6.63;2.88;;;27.30;87.50;;;;;;4956056;28;20542;-87
2022/05/18 11:25:02;;;;;;;9.23;3.40;;;27.40;87.20;;;;;;4972703;28;20050;-85
2022/05/18 11:27:37;;;;;;;7.45;4.55;;;27.40;87.60;;;;;;4974873;28;20081;-86
2022/05/18 11:30:12;;;;;;;6.65;3.50;;;27.40;87.00;;;;;;4970691;28;20030;-86
2022/05/18 11:32:53;;;;;;;5.22;2.88;;;27.50;86.70;;;;;;4969573;28;20455;-87
2022/05/18 11:35:43;;;;;;;6.07;3.25;;;27.50;86.00;;;;;;4968666;28;20495;-87
2022/05/18 11:38:41;;;;;;;5.30;2.05;;;27.60;86.80;;;;;;4966667;28;20035;-87
2022/05/18 11:41:25;;;;;;;3.60;1.83;;;27.70;85.60;;;;;;4971079;28;20122;-87
2022/05/18 11:44:25;;;;;;;6.88;2.28;;;27.60;84.80;;;;;;4973924;28;20110;-89
2022/05/18 11:47:00;;;;;;;27.90;2.70;;;27.50;84.50;;;;;;4957691;28;20097;-87
2022/05/18 11:49:42;;;;;;;5.25;1.90;;;27.40;84.30;;;;;;4974360;28;20035;-88
2022/05/18 11:52:23;;;;;;;3.80;1.50;;;27.40;84.20;;;;;;4972440;28;20027;-87
2022/05/18 11:55:12;;;;;;;3.60;1.90;;;27.30;83.20;;;;;;4973922;28;20057;-87
2022/05/18 11:57:42;;;;;;;2.53;0.90;;;27.40;83.20;;;;;;4973568;28;20035;-87
2022/05/18 12:00:37;;;;;;;5.40;2.40;;;27.50;83.70;;;;;;4972566;28;20023;-86
2022/05/18 12:03:13;;;;;;;4.88;2.70;;;27.50;83.00;;;;;;4972538;28;20027;-87
2022/05/18 12:06:03;;;;;;;8.75;2.50;;;27.50;82.30;;;;;;4972418;28;20471;-87
2022/05/18 12:09:00;;;;;;;4.47;2.03;;;27.40;83.30;;;;;;4973771;28;20038;-86
2022/05/18 12:11:51;;;;;;;3.78;2.80;;;27.40;83.80;;;;;;4968867;28;20587;-86
2022/05/18 12:14:26;;;;;;;5.60;2.90;;;27.50;84.00;;;;;;4954464;28;20031;-87
2022/05/18 12:17:19;;;;;;;7.70;3.42;;;27.50;83.30;;;;;;4972772;28;20030;-86
2022/05/18 12:19:50;;;;;;;5.30;2.85;;;27.70;82.70;;;;;;4971889;28;20058;-87
2022/05/18 12:22:31;;;;;;;5.45;2.85;;;27.80;82.60;;;;;;4973305;28;20081;-86
2022/05/18 12:24:57;;;;;;;5.47;2.30;;;27.80;82.10;;;;;;4972124;28;20538;-87
2022/05/18 12:27:25;;;;;;;5.90;3.25;;;27.90;82.40;;;;;;4972408;28;20117;-87
2022/05/18 12:29:53;;;;;;;5.70;3.05;;;28.00;81.30;;;;;;4972228;28;20038;-87
2022/05/18 12:32:20;;;;;;;3.88;2.47;;;28.10;80.80;;;;;;4972627;28;20422;-87
2022/05/18 12:34:57;;;;;;;5.90;2.53;;;28.30;80.50;;;;;;4971705;28;20031;-87
2022/05/18 12:37:22;;;;;;;5.47;2.80;;;28.30;80.40;;;;;;4973910;28;20023;-87
2022/05/18 12:40:02;;;;;;;5.80;3.55;;;28.50;80.40;;;;;;4972086;28;20031;-86
2022/05/18 12:42:29;;;;;;;5.85;2.65;;;28.60;78.40;;;;;;4972094;28;20110;-87
2022/05/18 12:45:21;;;;;;;4.32;2.53;;;28.50;78.20;;;;;;4971612;28;20507;-87
2022/05/18 12:47:52;;;;;;;4.30;2.35;;;28.40;78.00;;;;;;4972246;28;20026;-86
2022/05/18 12:50:30;;;;;;;6.95;2.40;;;28.50;78.10;;;;;;4972886;28;20031;-87
2022/05/18 12:52:59;;;;;;;3.80;1.85;;;28.40;78.00;;;;;;4972600;28;20125;-87
2022/05/18 12:55:52;;;;;;;3.97;1.67;;;28.40;78.50;;;;;;4973192;28;20090;-87
2022/05/18 12:58:28;;;;;;;2.90;1.55;;;28.60;77.70;;;;;;4974443;28;20310;-86
2022/05/18 13:01:15;;;;;;;2.92;1.38;;;28.60;77.30;;;;;;4974689;28;20027;-87
2022/05/18 13:04:00;;;;;;;3.92;1.92;;;28.60;77.00;;;;;;4975642;28;20035;-87
2022/05/18 13:06:44;;;;;;;4.65;2.28;;;28.60;76.90;;;;;;4971931;28;20062;-87
2022/05/18 13:09:33;;;;;;;4.97;1.85;;;28.70;76.30;;;;;;4976819;28;20022;-87
2022/05/18 13:12:17;;;;;;;5.00;2.30;;;28.60;76.70;;;;;;4975822;28;20039;-87
2022/05/18 13:15:03;;;;;;;4.65;2.67;;;28.80;76.40;;;;;;4960742;28;20027;-87
2022/05/18 13:17:54;;;;;;;4.35;2.88;;;29.00;76.10;;;;;;4976791;28;20054;-87
2022/05/18 13:20:25;;;;;;;6.18;3.28;;;29.20;75.50;;;;;;4974940;28;20031;-87